Ironia, New Jersey
Current Conditions -  °F | °C
As of 6:45 PM on Sunday 21 Dec 2014 (Local Time) from KMMU Reporting Station
Overcast Overcast  
Wind Chill: 31°   Ceiling: 3200
Heat Index: 36°   Visibility: 10mi
Dew Point: 28°   Wind: 6mph
Humidity: 75%   Direction: 30°NNE
Pressure: 30.34"   Gusts: NA
Location:  40.82°N, 74.63°W
Report Text: KMMU 212345Z 03005KT 10SM OVC032 02/M02 A3034
Loading
Personal Weather Stations






























Interactive Weather Map New forecast layout! Learn more

10-Day Weather Forecast

Advertisements
Track Severe Weather on mobile